RJNY  Shizuhama Airport

Add Bookmark

Japan

Status
Operational
Latitude Longitude
34° 48' 46" N 138° 17' 52" E
34.812801 138.298004
Local (DST + 9) UTC (GMT + 9)
Dec 21, 2014 10:11 Dec 21, 2014 01:11
Sunrise-Sunset Local UTC
Begin Civil Twilight 06:20 21:20
Sunrise 06:48 21:48
Sunset 04:40 07:40
End Civil Twilight 05:08 08:08

Current Weather

METAR Observed VFR
RJNY 202318Z 26019G29KT 9999 FEW025 08/M01 Q1010 Sat, Dec 20, 2014 @ 23:18 UTC
(1 Hour, 53 Minutes ago)
Visual Flight Rules
Wind Visibility Clouds Conditions
260° at 19 knots (35 kph)
Gusting to 29 knots (54 kph)
10 km or more
  • Few at 2,500' AGL
  • No significant weather
Temperatures Readings Precipitation
Current Temp 8°C (46°F)
Dewpoint -1°C (30°F)
Humidity 53%
Altimeter 29.82"Hg
Sea Level Pressure 1010mb
Field Elevation 32.81'
None Recorded

Additional weather within a 92.6km radius of RJNY

Map ICAO Location
rjns 10.2km W (259°)

24 Hour Weather History

Loading
-

24 Hour Weather Graphs

Loading
-

CheckWX.com is intended as a tool to help pilots better visualize weather data. It is not intended as a substitute for an official weather briefing obtained from a Flight Service Station. CheckWX.com does not meet the FAA requirements for an official pre-flight weather briefing. Therefore, it's important that pilots still call and obtain an official FSS pre-flight weather briefing.